RJBB V M0000
ILS Y RWY06R USING RWY 06R DEP FREQ 119.2. M 170000Z 03003KT 360V090 15KM FEW015CU BKN180AC 17/13 Q1015/A2998= Q/TWO NINE NINE EIGHT STP

TAF RJBB 162306Z 1700/1806 34004KT 9999 FEW030
BECMG 1701/1703 22008KT
BECMG 1715/1718 12005KT
BECMG 1800/1803 24006KT